Archival Weather

Chicago O'Hare International

Chicago, Illinois (KORD)

Report from: Friday, September 23, 2022 3:51 PM CDT
Current time: Sunday, December 4, 2022 6:59 AM CST

Current weather
Weather history
Weather forecast

Temperature16.7°C (62.1°F)
Dew point5.6°C (42.1°F)
Winds 5 kts (2.6 m/s, 5.8 mph) West-Southwest (250°)
Visibility10 mi. (16.1 km)
Clouds Few clouds 12,000 ft. (3,658 m)
Ceiling: Broken clouds 15,000 ft. (4,572 m)
Broken clouds 18,000 ft. (5,486 m)
Overcast 25,000 ft. (7,620 m)
Altimeter30.16 in.Hg (1021 mB)
Relative humidity48 %
Density altitude62 ft. (19 m)
Sea-level pressure102.2 kPa (1022 mB, 30.16 in.Hg)
Remarks Automated weather observing station with precipitation discriminator
Pressure falling more slowly
Flight conditions Visual Meteorological Conditions
Raw dataKORD 232051Z 25005KT 10SM FEW120 BKN150 BKN180 OVC250 17/06 A3016 RMK AO2 SLP215 T01670056 56013
An error has occurred. This application may no longer respond until reloaded. Reload 🗙